sensor_id;sensor_type;location;lat;lon;timestamp;P1;durP1;ratioP1;P2;durP2;ratioP2
19733;SDS011;10018;51.230;7.860;2022-11-20T00:03:32;22.47;;;11.23;;
19733;SDS011;10018;51.230;7.860;2022-11-20T00:06:05;26.10;;;12.37;;
19733;SDS011;10018;51.230;7.860;2022-11-20T00:08:33;24.17;;;12.13;;
19733;SDS011;10018;51.230;7.860;2022-11-20T00:11:12;24.03;;;12.27;;
19733;SDS011;10018;51.230;7.860;2022-11-20T00:13:39;23.00;;;11.90;;
19733;SDS011;10018;51.230;7.860;2022-11-20T00:16:06;25.73;;;11.40;;
19733;SDS011;10018;51.230;7.860;2022-11-20T00:18:34;20.20;;;10.13;;
19733;SDS011;10018;51.230;7.860;2022-11-20T00:21:06;22.10;;;10.90;;
19733;SDS011;10018;51.230;7.860;2022-11-20T00:23:34;21.37;;;10.30;;
19733;SDS011;10018;51.230;7.860;2022-11-20T00:26:04;20.77;;;10.57;;
19733;SDS011;10018;51.230;7.860;2022-11-20T00:28:30;18.07;;;9.70;;
19733;SDS011;10018;51.230;7.860;2022-11-20T00:33:35;19.50;;;9.87;;
19733;SDS011;10018;51.230;7.860;2022-11-20T00:36:01;17.77;;;10.33;;
19733;SDS011;10018;51.230;7.860;2022-11-20T00:38:29;20.27;;;10.50;;
19733;SDS011;10018;51.230;7.860;2022-11-20T00:40:56;20.13;;;9.93;;
19733;SDS011;10018;51.230;7.860;2022-11-20T00:43:23;21.03;;;10.60;;
19733;SDS011;10018;51.230;7.860;2022-11-20T00:45:49;27.40;;;11.20;;
19733;SDS011;10018;51.230;7.860;2022-11-20T00:48:14;24.73;;;11.10;;
19733;SDS011;10018;51.230;7.860;2022-11-20T00:50:40;17.77;;;8.87;;
19733;SDS011;10018;51.230;7.860;2022-11-20T00:53:06;18.37;;;9.80;;
19733;SDS011;10018;51.230;7.860;2022-11-20T00:55:32;18.10;;;9.77;;
19733;SDS011;10018;51.230;7.860;2022-11-20T00:57:57;17.27;;;9.47;;
19733;SDS011;10018;51.230;7.860;2022-11-20T01:00:23;21.03;;;10.10;;
19733;SDS011;10018;51.230;7.860;2022-11-20T01:02:48;21.43;;;10.30;;
19733;SDS011;10018;51.230;7.860;2022-11-20T01:05:14;17.30;;;9.67;;
19733;SDS011;10018;51.230;7.860;2022-11-20T01:07:39;20.77;;;10.27;;
19733;SDS011;10018;51.230;7.860;2022-11-20T01:10:05;17.27;;;9.97;;
19733;SDS011;10018;51.230;7.860;2022-11-20T01:12:31;15.57;;;8.93;;
19733;SDS011;10018;51.230;7.860;2022-11-20T01:14:56;19.27;;;9.53;;
19733;SDS011;10018;51.230;7.860;2022-11-20T01:17:22;17.00;;;9.17;;
19733;SDS011;10018;51.230;7.860;2022-11-20T01:19:50;17.47;;;9.53;;
19733;SDS011;10018;51.230;7.860;2022-11-20T01:22:16;16.53;;;9.13;;
19733;SDS011;10018;51.230;7.860;2022-11-20T01:24:42;16.33;;;9.00;;
19733;SDS011;10018;51.230;7.860;2022-11-20T01:27:07;18.13;;;9.60;;
19733;SDS011;10018;51.230;7.860;2022-11-20T01:29:33;17.23;;;8.73;;
19733;SDS011;10018;51.230;7.860;2022-11-20T01:31:58;15.80;;;9.17;;
19733;SDS011;10018;51.230;7.860;2022-11-20T01:34:24;15.10;;;8.67;;
19733;SDS011;10018;51.230;7.860;2022-11-20T01:36:50;16.27;;;8.60;;
19733;SDS011;10018;51.230;7.860;2022-11-20T01:39:20;18.43;;;9.20;;
19733;SDS011;10018;51.230;7.860;2022-11-20T01:41:51;17.10;;;9.10;;
19733;SDS011;10018;51.230;7.860;2022-11-20T01:47:52;19.10;;;9.53;;
19733;SDS011;10018;51.230;7.860;2022-11-20T01:50:24;21.37;;;9.73;;
19733;SDS011;10018;51.230;7.860;2022-11-20T01:52:58;19.87;;;9.17;;
19733;SDS011;10018;51.230;7.860;2022-11-20T01:55:34;18.40;;;9.57;;
19733;SDS011;10018;51.230;7.860;2022-11-20T01:58:05;17.63;;;9.43;;
19733;SDS011;10018;51.230;7.860;2022-11-20T02:00:31;16.27;;;9.10;;
19733;SDS011;10018;51.230;7.860;2022-11-20T02:02:57;16.50;;;9.03;;
19733;SDS011;10018;51.230;7.860;2022-11-20T02:05:36;20.37;;;10.00;;
19733;SDS011;10018;51.230;7.860;2022-11-20T02:08:04;19.53;;;9.83;;
19733;SDS011;10018;51.230;7.860;2022-11-20T02:10:31;17.40;;;8.50;;
19733;SDS011;10018;51.230;7.860;2022-11-20T02:12:57;16.30;;;9.00;;
19733;SDS011;10018;51.230;7.860;2022-11-20T02:15:41;16.23;;;9.13;;
19733;SDS011;10018;51.230;7.860;2022-11-20T02:18:07;17.00;;;9.43;;
19733;SDS011;10018;51.230;7.860;2022-11-20T02:20:34;20.47;;;9.67;;
19733;SDS011;10018;51.230;7.860;2022-11-20T02:23:02;16.43;;;8.73;;
19733;SDS011;10018;51.230;7.860;2022-11-20T02:25:33;17.47;;;9.00;;
19733;SDS011;10018;51.230;7.860;2022-11-20T02:28:01;15.97;;;9.07;;
19733;SDS011;10018;51.230;7.860;2022-11-20T02:30:27;18.47;;;9.13;;
19733;SDS011;10018;51.230;7.860;2022-11-20T02:32:53;16.37;;;9.07;;
19733;SDS011;10018;51.230;7.860;2022-11-20T02:37:44;18.60;;;9.80;;
19733;SDS011;10018;51.230;7.860;2022-11-20T02:40:12;17.40;;;9.17;;
19733;SDS011;10018;51.230;7.860;2022-11-20T02:42:38;18.87;;;9.77;;
19733;SDS011;10018;51.230;7.860;2022-11-20T02:45:04;18.07;;;9.50;;
19733;SDS011;10018;51.230;7.860;2022-11-20T02:47:30;20.87;;;9.93;;
19733;SDS011;10018;51.230;7.860;2022-11-20T02:49:56;18.03;;;9.40;;
19733;SDS011;10018;51.230;7.860;2022-11-20T02:52:22;19.17;;;9.50;;
19733;SDS011;10018;51.230;7.860;2022-11-20T02:54:48;19.97;;;9.40;;
19733;SDS011;10018;51.230;7.860;2022-11-20T02:57:13;17.20;;;9.03;;
19733;SDS011;10018;51.230;7.860;2022-11-20T02:59:39;16.60;;;9.10;;
19733;SDS011;10018;51.230;7.860;2022-11-20T03:02:04;17.57;;;9.53;;
19733;SDS011;10018;51.230;7.860;2022-11-20T03:04:30;16.43;;;9.33;;
19733;SDS011;10018;51.230;7.860;2022-11-20T03:06:55;17.47;;;9.60;;
19733;SDS011;10018;51.230;7.860;2022-11-20T03:09:21;22.27;;;10.07;;
19733;SDS011;10018;51.230;7.860;2022-11-20T03:11:47;19.33;;;10.27;;
19733;SDS011;10018;51.230;7.860;2022-11-20T03:14:12;20.10;;;9.23;;
19733;SDS011;10018;51.230;7.860;2022-11-20T03:16:38;22.33;;;10.90;;
19733;SDS011;10018;51.230;7.860;2022-11-20T03:19:03;20.70;;;10.60;;
19733;SDS011;10018;51.230;7.860;2022-11-20T03:21:29;23.30;;;11.00;;
19733;SDS011;10018;51.230;7.860;2022-11-20T03:23:54;19.77;;;10.13;;
19733;SDS011;10018;51.230;7.860;2022-11-20T03:26:22;19.90;;;10.63;;
19733;SDS011;10018;51.230;7.860;2022-11-20T03:28:49;19.73;;;10.17;;
19733;SDS011;10018;51.230;7.860;2022-11-20T03:31:17;25.27;;;11.30;;
19733;SDS011;10018;51.230;7.860;2022-11-20T03:33:44;23.57;;;11.90;;
19733;SDS011;10018;51.230;7.860;2022-11-20T03:36:11;25.50;;;11.57;;
19733;SDS011;10018;51.230;7.860;2022-11-20T03:38:38;25.10;;;12.57;;
19733;SDS011;10018;51.230;7.860;2022-11-20T03:41:06;25.23;;;12.03;;
19733;SDS011;10018;51.230;7.860;2022-11-20T03:43:33;26.53;;;12.10;;
19733;SDS011;10018;51.230;7.860;2022-11-20T03:45:59;26.07;;;12.60;;
19733;SDS011;10018;51.230;7.860;2022-11-20T03:48:26;23.93;;;12.20;;
19733;SDS011;10018;51.230;7.860;2022-11-20T03:50:52;26.13;;;12.77;;
19733;SDS011;10018;51.230;7.860;2022-11-20T03:53:31;25.10;;;13.00;;
19733;SDS011;10018;51.230;7.860;2022-11-20T03:55:56;27.03;;;12.97;;
19733;SDS011;10018;51.230;7.860;2022-11-20T03:58:22;27.63;;;13.03;;
19733;SDS011;10018;51.230;7.860;2022-11-20T04:00:47;28.27;;;14.07;;
19733;SDS011;10018;51.230;7.860;2022-11-20T04:03:12;27.47;;;13.77;;
19733;SDS011;10018;51.230;7.860;2022-11-20T04:05:38;27.77;;;13.67;;
19733;SDS011;10018;51.230;7.860;2022-11-20T04:08:03;27.83;;;13.53;;
19733;SDS011;10018;51.230;7.860;2022-11-20T04:10:29;28.37;;;13.77;;
19733;SDS011;10018;51.230;7.860;2022-11-20T04:12:55;31.43;;;14.23;;
19733;SDS011;10018;51.230;7.860;2022-11-20T04:15:20;28.30;;;13.50;;
19733;SDS011;10018;51.230;7.860;2022-11-20T04:17:46;28.13;;;13.83;;
19733;SDS011;10018;51.230;7.860;2022-11-20T04:20:11;28.80;;;14.93;;
19733;SDS011;10018;51.230;7.860;2022-11-20T04:22:37;29.17;;;14.53;;
19733;SDS011;10018;51.230;7.860;2022-11-20T04:25:02;34.43;;;14.10;;
19733;SDS011;10018;51.230;7.860;2022-11-20T04:27:28;33.23;;;15.30;;
19733;SDS011;10018;51.230;7.860;2022-11-20T04:29:55;35.33;;;15.10;;
19733;SDS011;10018;51.230;7.860;2022-11-20T04:32:21;35.80;;;16.33;;
19733;SDS011;10018;51.230;7.860;2022-11-20T04:34:46;31.90;;;15.03;;
19733;SDS011;10018;51.230;7.860;2022-11-20T04:37:12;31.10;;;15.10;;
19733;SDS011;10018;51.230;7.860;2022-11-20T04:39:37;32.90;;;15.40;;
19733;SDS011;10018;51.230;7.860;2022-11-20T04:42:03;35.17;;;16.50;;
19733;SDS011;10018;51.230;7.860;2022-11-20T04:44:47;31.40;;;14.93;;
19733;SDS011;10018;51.230;7.860;2022-11-20T04:47:13;35.57;;;16.27;;
19733;SDS011;10018;51.230;7.860;2022-11-20T04:49:39;33.40;;;16.07;;
19733;SDS011;10018;51.230;7.860;2022-11-20T04:52:05;32.77;;;15.20;;
19733;SDS011;10018;51.230;7.860;2022-11-20T04:54:30;33.10;;;16.13;;
19733;SDS011;10018;51.230;7.860;2022-11-20T04:56:56;34.27;;;15.53;;
19733;SDS011;10018;51.230;7.860;2022-11-20T04:59:21;34.10;;;15.20;;
19733;SDS011;10018;51.230;7.860;2022-11-20T05:01:47;33.63;;;15.40;;
19733;SDS011;10018;51.230;7.860;2022-11-20T05:04:12;35.03;;;14.97;;
19733;SDS011;10018;51.230;7.860;2022-11-20T05:06:38;30.10;;;14.87;;
19733;SDS011;10018;51.230;7.860;2022-11-20T05:09:03;30.90;;;14.07;;
19733;SDS011;10018;51.230;7.860;2022-11-20T05:11:29;33.50;;;15.00;;
19733;SDS011;10018;51.230;7.860;2022-11-20T05:13:57;30.30;;;14.27;;
19733;SDS011;10018;51.230;7.860;2022-11-20T05:16:24;32.17;;;14.47;;
19733;SDS011;10018;51.230;7.860;2022-11-20T05:18:50;28.60;;;14.13;;
19733;SDS011;10018;51.230;7.860;2022-11-20T05:21:17;33.67;;;14.47;;
19733;SDS011;10018;51.230;7.860;2022-11-20T05:23:43;33.67;;;15.33;;
19733;SDS011;10018;51.230;7.860;2022-11-20T05:26:27;30.80;;;14.83;;
19733;SDS011;10018;51.230;7.860;2022-11-20T05:28:53;31.73;;;14.63;;
19733;SDS011;10018;51.230;7.860;2022-11-20T05:31:22;32.80;;;13.33;;
19733;SDS011;10018;51.230;7.860;2022-11-20T05:33:49;28.70;;;14.07;;
19733;SDS011;10018;51.230;7.860;2022-11-20T05:36:15;28.77;;;12.97;;
19733;SDS011;10018;51.230;7.860;2022-11-20T05:38:40;28.93;;;13.33;;
19733;SDS011;10018;51.230;7.860;2022-11-20T05:41:07;29.47;;;13.53;;
19733;SDS011;10018;51.230;7.860;2022-11-20T05:43:36;29.77;;;12.87;;
19733;SDS011;10018;51.230;7.860;2022-11-20T05:46:03;32.43;;;14.00;;
19733;SDS011;10018;51.230;7.860;2022-11-20T05:48:29;32.30;;;14.77;;
19733;SDS011;10018;51.230;7.860;2022-11-20T05:50:59;36.40;;;15.90;;
19733;SDS011;10018;51.230;7.860;2022-11-20T05:53:25;32.63;;;15.50;;
19733;SDS011;10018;51.230;7.860;2022-11-20T05:56:01;32.47;;;14.73;;
19733;SDS011;10018;51.230;7.860;2022-11-20T05:58:31;31.33;;;14.10;;
19733;SDS011;10018;51.230;7.860;2022-11-20T06:01:08;35.07;;;15.17;;
19733;SDS011;10018;51.230;7.860;2022-11-20T06:03:35;31.40;;;14.23;;
19733;SDS011;10018;51.230;7.860;2022-11-20T06:06:02;34.47;;;15.47;;
19733;SDS011;10018;51.230;7.860;2022-11-20T06:08:29;36.83;;;15.40;;
19733;SDS011;10018;51.230;7.860;2022-11-20T06:10:55;31.67;;;15.27;;
19733;SDS011;10018;51.230;7.860;2022-11-20T06:13:21;37.47;;;17.40;;
19733;SDS011;10018;51.230;7.860;2022-11-20T06:15:50;37.33;;;16.40;;
19733;SDS011;10018;51.230;7.860;2022-11-20T06:18:16;34.63;;;15.97;;
19733;SDS011;10018;51.230;7.860;2022-11-20T06:20:42;37.60;;;16.03;;
19733;SDS011;10018;51.230;7.860;2022-11-20T06:23:07;34.97;;;15.60;;
19733;SDS011;10018;51.230;7.860;2022-11-20T06:25:33;32.43;;;14.77;;
19733;SDS011;10018;51.230;7.860;2022-11-20T06:28:05;30.97;;;14.03;;
19733;SDS011;10018;51.230;7.860;2022-11-20T06:30:31;34.23;;;14.23;;
19733;SDS011;10018;51.230;7.860;2022-11-20T06:32:57;30.20;;;14.40;;
19733;SDS011;10018;51.230;7.860;2022-11-20T06:35:22;34.43;;;15.73;;
19733;SDS011;10018;51.230;7.860;2022-11-20T06:37:48;35.07;;;16.87;;
19733;SDS011;10018;51.230;7.860;2022-11-20T06:40:13;36.87;;;17.07;;
19733;SDS011;10018;51.230;7.860;2022-11-20T06:42:39;35.97;;;16.90;;
19733;SDS011;10018;51.230;7.860;2022-11-20T06:45:04;36.57;;;16.60;;
19733;SDS011;10018;51.230;7.860;2022-11-20T06:47:30;36.47;;;16.53;;
19733;SDS011;10018;51.230;7.860;2022-11-20T06:49:55;29.27;;;14.47;;
19733;SDS011;10018;51.230;7.860;2022-11-20T06:52:21;33.47;;;14.83;;
19733;SDS011;10018;51.230;7.860;2022-11-20T06:54:46;31.20;;;15.00;;
19733;SDS011;10018;51.230;7.860;2022-11-20T06:57:12;35.20;;;16.40;;
19733;SDS011;10018;51.230;7.860;2022-11-20T06:59:37;33.60;;;15.03;;
19733;SDS011;10018;51.230;7.860;2022-11-20T07:02:03;31.87;;;14.80;;
19733;SDS011;10018;51.230;7.860;2022-11-20T07:04:28;35.70;;;15.97;;
19733;SDS011;10018;51.230;7.860;2022-11-20T07:06:54;84.20;;;44.17;;
19733;SDS011;10018;51.230;7.860;2022-11-20T07:09:19;62.10;;;31.60;;
19733;SDS011;10018;51.230;7.860;2022-11-20T07:11:45;44.60;;;19.70;;
19733;SDS011;10018;51.230;7.860;2022-11-20T07:14:10;37.17;;;17.43;;
19733;SDS011;10018;51.230;7.860;2022-11-20T07:16:36;45.57;;;25.20;;
19733;SDS011;10018;51.230;7.860;2022-11-20T07:19:01;34.67;;;17.67;;
19733;SDS011;10018;51.230;7.860;2022-11-20T07:21:27;38.93;;;18.20;;
19733;SDS011;10018;51.230;7.860;2022-11-20T07:23:52;48.67;;;23.30;;
19733;SDS011;10018;51.230;7.860;2022-11-20T07:26:17;38.23;;;17.80;;
19733;SDS011;10018;51.230;7.860;2022-11-20T07:28:44;37.53;;;17.33;;
19733;SDS011;10018;51.230;7.860;2022-11-20T07:31:10;39.47;;;17.67;;
19733;SDS011;10018;51.230;7.860;2022-11-20T07:33:36;39.20;;;17.97;;
19733;SDS011;10018;51.230;7.860;2022-11-20T07:36:02;44.33;;;17.83;;
19733;SDS011;10018;51.230;7.860;2022-11-20T07:38:29;49.43;;;26.17;;
19733;SDS011;10018;51.230;7.860;2022-11-20T07:40:58;34.97;;;16.97;;
19733;SDS011;10018;51.230;7.860;2022-11-20T07:43:26;35.47;;;16.67;;
19733;SDS011;10018;51.230;7.860;2022-11-20T07:45:52;35.10;;;15.97;;
19733;SDS011;10018;51.230;7.860;2022-11-20T07:48:20;40.50;;;17.00;;
19733;SDS011;10018;51.230;7.860;2022-11-20T07:50:46;145.83;;;63.10;;
19733;SDS011;10018;51.230;7.860;2022-11-20T07:53:11;122.53;;;57.57;;
19733;SDS011;10018;51.230;7.860;2022-11-20T07:55:38;84.80;;;42.50;;
19733;SDS011;10018;51.230;7.860;2022-11-20T07:58:04;49.63;;;23.77;;
19733;SDS011;10018;51.230;7.860;2022-11-20T08:00:30;56.47;;;28.50;;
19733;SDS011;10018;51.230;7.860;2022-11-20T08:02:55;46.93;;;24.13;;
19733;SDS011;10018;51.230;7.860;2022-11-20T08:05:21;53.10;;;28.30;;
19733;SDS011;10018;51.230;7.860;2022-11-20T08:07:47;54.27;;;28.43;;
19733;SDS011;10018;51.230;7.860;2022-11-20T08:10:13;59.70;;;33.03;;
19733;SDS011;10018;51.230;7.860;2022-11-20T08:12:47;51.20;;;25.20;;
19733;SDS011;10018;51.230;7.860;2022-11-20T08:15:33;38.43;;;18.43;;
19733;SDS011;10018;51.230;7.860;2022-11-20T08:18:05;34.17;;;16.53;;
19733;SDS011;10018;51.230;7.860;2022-11-20T08:20:32;49.27;;;25.90;;
19733;SDS011;10018;51.230;7.860;2022-11-20T08:22:59;42.63;;;21.13;;
19733;SDS011;10018;51.230;7.860;2022-11-20T08:25:26;53.97;;;26.17;;
19733;SDS011;10018;51.230;7.860;2022-11-20T08:27:58;48.17;;;24.10;;
19733;SDS011;10018;51.230;7.860;2022-11-20T08:30:24;37.80;;;17.87;;
19733;SDS011;10018;51.230;7.860;2022-11-20T08:32:50;38.40;;;17.70;;
19733;SDS011;10018;51.230;7.860;2022-11-20T08:35:15;40.90;;;19.63;;
19733;SDS011;10018;51.230;7.860;2022-11-20T08:37:41;37.43;;;17.63;;
19733;SDS011;10018;51.230;7.860;2022-11-20T08:40:09;38.57;;;18.60;;
19733;SDS011;10018;51.230;7.860;2022-11-20T08:42:35;41.17;;;18.90;;
19733;SDS011;10018;51.230;7.860;2022-11-20T08:45:00;42.20;;;21.37;;
19733;SDS011;10018;51.230;7.860;2022-11-20T08:47:26;38.80;;;17.87;;
19733;SDS011;10018;51.230;7.860;2022-11-20T08:49:52;40.57;;;18.87;;
19733;SDS011;10018;51.230;7.860;2022-11-20T08:52:17;39.07;;;18.53;;
19733;SDS011;10018;51.230;7.860;2022-11-20T08:54:43;50.43;;;30.03;;
19733;SDS011;10018;51.230;7.860;2022-11-20T08:57:08;40.67;;;20.47;;
19733;SDS011;10018;51.230;7.860;2022-11-20T08:59:34;41.43;;;21.23;;
19733;SDS011;10018;51.230;7.860;2022-11-20T09:01:59;53.93;;;30.67;;
19733;SDS011;10018;51.230;7.860;2022-11-20T09:04:25;45.20;;;21.60;;
19733;SDS011;10018;51.230;7.860;2022-11-20T09:06:50;41.60;;;19.83;;
19733;SDS011;10018;51.230;7.860;2022-11-20T09:09:16;43.27;;;21.00;;
19733;SDS011;10018;51.230;7.860;2022-11-20T09:11:43;43.40;;;21.20;;
19733;SDS011;10018;51.230;7.860;2022-11-20T09:14:09;46.47;;;23.03;;
19733;SDS011;10018;51.230;7.860;2022-11-20T09:16:34;52.13;;;25.43;;
19733;SDS011;10018;51.230;7.860;2022-11-20T09:19:00;49.23;;;23.97;;
19733;SDS011;10018;51.230;7.860;2022-11-20T09:21:25;41.10;;;22.33;;
19733;SDS011;10018;51.230;7.860;2022-11-20T09:23:51;40.93;;;20.63;;
19733;SDS011;10018;51.230;7.860;2022-11-20T09:26:16;37.43;;;18.10;;
19733;SDS011;10018;51.230;7.860;2022-11-20T09:28:42;35.67;;;17.10;;
19733;SDS011;10018;51.230;7.860;2022-11-20T09:31:08;36.93;;;18.83;;
19733;SDS011;10018;51.230;7.860;2022-11-20T09:33:38;35.80;;;16.90;;
19733;SDS011;10018;51.230;7.860;2022-11-20T09:36:03;32.40;;;16.40;;
19733;SDS011;10018;51.230;7.860;2022-11-20T09:38:29;36.07;;;17.53;;
19733;SDS011;10018;51.230;7.860;2022-11-20T09:41:01;41.93;;;19.10;;
19733;SDS011;10018;51.230;7.860;2022-11-20T09:43:37;33.27;;;17.83;;
19733;SDS011;10018;51.230;7.860;2022-11-20T09:49:47;31.40;;;15.07;;
19733;SDS011;10018;51.230;7.860;2022-11-20T09:55:33;33.57;;;15.57;;
19733;SDS011;10018;51.230;7.860;2022-11-20T09:58:00;35.77;;;17.83;;
19733;SDS011;10018;51.230;7.860;2022-11-20T10:00:26;33.10;;;16.87;;
19733;SDS011;10018;51.230;7.860;2022-11-20T10:03:05;46.67;;;22.67;;
19733;SDS011;10018;51.230;7.860;2022-11-20T10:05:51;56.37;;;27.40;;
19733;SDS011;10018;51.230;7.860;2022-11-20T10:08:28;68.30;;;28.17;;
19733;SDS011;10018;51.230;7.860;2022-11-20T10:11:04;53.20;;;26.80;;
19733;SDS011;10018;51.230;7.860;2022-11-20T10:13:49;35.73;;;19.40;;
19733;SDS011;10018;51.230;7.860;2022-11-20T10:19:45;38.70;;;19.00;;
19733;SDS011;10018;51.230;7.860;2022-11-20T10:25:15;48.37;;;25.30;;
19733;SDS011;10018;51.230;7.860;2022-11-20T10:27:48;35.47;;;18.67;;
19733;SDS011;10018;51.230;7.860;2022-11-20T10:30:40;28.57;;;15.70;;
19733;SDS011;10018;51.230;7.860;2022-11-20T10:33:16;28.30;;;15.70;;
19733;SDS011;10018;51.230;7.860;2022-11-20T10:35:45;32.33;;;15.60;;
19733;SDS011;10018;51.230;7.860;2022-11-20T10:38:21;29.60;;;16.57;;
19733;SDS011;10018;51.230;7.860;2022-11-20T10:40:52;33.03;;;18.00;;
19733;SDS011;10018;51.230;7.860;2022-11-20T10:43:40;26.17;;;14.47;;
19733;SDS011;10018;51.230;7.860;2022-11-20T10:46:08;24.53;;;14.10;;
19733;SDS011;10018;51.230;7.860;2022-11-20T10:48:39;31.00;;;15.67;;
19733;SDS011;10018;51.230;7.860;2022-11-20T10:51:11;25.43;;;13.83;;
19733;SDS011;10018;51.230;7.860;2022-11-20T10:53:51;24.77;;;13.07;;
19733;SDS011;10018;51.230;7.860;2022-11-20T10:56:47;27.50;;;14.17;;
19733;SDS011;10018;51.230;7.860;2022-11-20T11:02:18;41.57;;;21.73;;
19733;SDS011;10018;51.230;7.860;2022-11-20T11:04:58;32.30;;;16.33;;
19733;SDS011;10018;51.230;7.860;2022-11-20T11:07:36;38.60;;;19.27;;
19733;SDS011;10018;51.230;7.860;2022-11-20T11:10:14;31.67;;;17.17;;
19733;SDS011;10018;51.230;7.860;2022-11-20T11:12:45;30.63;;;16.90;;
19733;SDS011;10018;51.230;7.860;2022-11-20T11:15:14;23.53;;;13.47;;
19733;SDS011;10018;51.230;7.860;2022-11-20T11:17:51;20.07;;;11.23;;
19733;SDS011;10018;51.230;7.860;2022-11-20T11:20:18;22.60;;;11.93;;
19733;SDS011;10018;51.230;7.860;2022-11-20T11:22:46;19.07;;;11.20;;
19733;SDS011;10018;51.230;7.860;2022-11-20T11:27:47;18.40;;;9.13;;
19733;SDS011;10018;51.230;7.860;2022-11-20T11:30:15;15.43;;;8.80;;
19733;SDS011;10018;51.230;7.860;2022-11-20T11:32:42;15.47;;;8.70;;
19733;SDS011;10018;51.230;7.860;2022-11-20T11:35:22;18.30;;;10.40;;
19733;SDS011;10018;51.230;7.860;2022-11-20T11:37:53;16.13;;;9.63;;
19733;SDS011;10018;51.230;7.860;2022-11-20T11:40:27;14.60;;;8.80;;
19733;SDS011;10018;51.230;7.860;2022-11-20T11:42:56;18.37;;;10.83;;
19733;SDS011;10018;51.230;7.860;2022-11-20T11:45:24;14.90;;;8.73;;
19733;SDS011;10018;51.230;7.860;2022-11-20T11:47:51;18.17;;;9.67;;
19733;SDS011;10018;51.230;7.860;2022-11-20T11:50:23;14.80;;;8.97;;
19733;SDS011;10018;51.230;7.860;2022-11-20T11:52:58;18.17;;;10.80;;
19733;SDS011;10018;51.230;7.860;2022-11-20T11:55:42;19.97;;;10.73;;
19733;SDS011;10018;51.230;7.860;2022-11-20T11:58:47;16.97;;;9.87;;
19733;SDS011;10018;51.230;7.860;2022-11-20T12:03:44;16.37;;;9.67;;
19733;SDS011;10018;51.230;7.860;2022-11-20T12:06:35;15.83;;;9.47;;
19733;SDS011;10018;51.230;7.860;2022-11-20T12:09:04;14.80;;;9.27;;
19733;SDS011;10018;51.230;7.860;2022-11-20T12:11:38;17.27;;;10.10;;
19733;SDS011;10018;51.230;7.860;2022-11-20T12:14:31;14.37;;;8.90;;
19733;SDS011;10018;51.230;7.860;2022-11-20T12:17:01;18.83;;;10.03;;
19733;SDS011;10018;51.230;7.860;2022-11-20T12:19:31;26.50;;;14.70;;
19733;SDS011;10018;51.230;7.860;2022-11-20T12:24:42;24.43;;;14.27;;
19733;SDS011;10018;51.230;7.860;2022-11-20T12:30:18;30.03;;;17.90;;
19733;SDS011;10018;51.230;7.860;2022-11-20T12:44:36;19.50;;;13.07;;
19733;SDS011;10018;51.230;7.860;2022-11-20T12:53:04;19.57;;;12.57;;
19733;SDS011;10018;51.230;7.860;2022-11-20T12:58:32;20.07;;;12.00;;
19733;SDS011;10018;51.230;7.860;2022-11-20T13:04:12;51.53;;;28.53;;
19733;SDS011;10018;51.230;7.860;2022-11-20T13:06:45;22.23;;;11.93;;
19733;SDS011;10018;51.230;7.860;2022-11-20T13:09:11;22.27;;;11.93;;
19733;SDS011;10018;51.230;7.860;2022-11-20T13:11:47;21.53;;;12.60;;
19733;SDS011;10018;51.230;7.860;2022-11-20T13:17:12;31.03;;;17.50;;
19733;SDS011;10018;51.230;7.860;2022-11-20T13:20:01;32.27;;;18.17;;
19733;SDS011;10018;51.230;7.860;2022-11-20T13:27:57;25.03;;;13.77;;
19733;SDS011;10018;51.230;7.860;2022-11-20T13:30:26;26.20;;;13.30;;
19733;SDS011;10018;51.230;7.860;2022-11-20T13:32:56;28.10;;;17.63;;
19733;SDS011;10018;51.230;7.860;2022-11-20T13:35:34;26.10;;;14.43;;
19733;SDS011;10018;51.230;7.860;2022-11-20T13:38:02;28.93;;;17.73;;
19733;SDS011;10018;51.230;7.860;2022-11-20T13:40:28;26.23;;;15.83;;
19733;SDS011;10018;51.230;7.860;2022-11-20T13:45:54;25.57;;;15.17;;
19733;SDS011;10018;51.230;7.860;2022-11-20T14:02:13;31.07;;;16.30;;
19733;SDS011;10018;51.230;7.860;2022-11-20T14:05:17;26.80;;;15.20;;
19733;SDS011;10018;51.230;7.860;2022-11-20T14:07:42;47.47;;;26.93;;
19733;SDS011;10018;51.230;7.860;2022-11-20T14:10:22;44.77;;;27.23;;
19733;SDS011;10018;51.230;7.860;2022-11-20T14:12:54;35.33;;;18.40;;
19733;SDS011;10018;51.230;7.860;2022-11-20T14:15:30;25.00;;;13.60;;
19733;SDS011;10018;51.230;7.860;2022-11-20T14:17:58;33.57;;;17.50;;
19733;SDS011;10018;51.230;7.860;2022-11-20T14:20:27;32.47;;;18.80;;
19733;SDS011;10018;51.230;7.860;2022-11-20T14:22:56;31.80;;;18.27;;
19733;SDS011;10018;51.230;7.860;2022-11-20T14:25:23;25.17;;;15.13;;
19733;SDS011;10018;51.230;7.860;2022-11-20T14:27:59;27.70;;;15.50;;
19733;SDS011;10018;51.230;7.860;2022-11-20T14:30:35;30.30;;;16.30;;
19733;SDS011;10018;51.230;7.860;2022-11-20T14:33:09;27.53;;;16.30;;
19733;SDS011;10018;51.230;7.860;2022-11-20T14:35:40;37.40;;;21.80;;
19733;SDS011;10018;51.230;7.860;2022-11-20T14:38:11;30.80;;;17.53;;
19733;SDS011;10018;51.230;7.860;2022-11-20T14:40:39;32.90;;;17.30;;
19733;SDS011;10018;51.230;7.860;2022-11-20T14:43:26;29.03;;;16.60;;
19733;SDS011;10018;51.230;7.860;2022-11-20T14:48:51;37.50;;;19.80;;
19733;SDS011;10018;51.230;7.860;2022-11-20T14:53:59;36.93;;;22.73;;
19733;SDS011;10018;51.230;7.860;2022-11-20T14:56:36;79.37;;;52.90;;
19733;SDS011;10018;51.230;7.860;2022-11-20T14:59:02;66.70;;;43.93;;
19733;SDS011;10018;51.230;7.860;2022-11-20T15:01:28;60.67;;;37.87;;
19733;SDS011;10018;51.230;7.860;2022-11-20T15:04:04;41.20;;;22.73;;
19733;SDS011;10018;51.230;7.860;2022-11-20T15:06:37;56.27;;;29.50;;
19733;SDS011;10018;51.230;7.860;2022-11-20T15:09:12;45.33;;;23.40;;
19733;SDS011;10018;51.230;7.860;2022-11-20T15:11:39;39.77;;;22.77;;
19733;SDS011;10018;51.230;7.860;2022-11-20T15:14:15;34.03;;;19.27;;
19733;SDS011;10018;51.230;7.860;2022-11-20T15:16:40;42.00;;;22.57;;
19733;SDS011;10018;51.230;7.860;2022-11-20T15:19:09;54.27;;;33.53;;
19733;SDS011;10018;51.230;7.860;2022-11-20T15:21:42;49.50;;;28.63;;
19733;SDS011;10018;51.230;7.860;2022-11-20T15:24:08;58.20;;;32.77;;
19733;SDS011;10018;51.230;7.860;2022-11-20T15:26:34;53.03;;;29.47;;
19733;SDS011;10018;51.230;7.860;2022-11-20T15:29:02;45.43;;;24.47;;
19733;SDS011;10018;51.230;7.860;2022-11-20T15:31:27;36.60;;;19.53;;
19733;SDS011;10018;51.230;7.860;2022-11-20T15:33:53;40.40;;;20.80;;
19733;SDS011;10018;51.230;7.860;2022-11-20T15:36:18;43.77;;;24.67;;
19733;SDS011;10018;51.230;7.860;2022-11-20T15:38:44;40.03;;;23.47;;
19733;SDS011;10018;51.230;7.860;2022-11-20T15:41:09;52.73;;;29.47;;
19733;SDS011;10018;51.230;7.860;2022-11-20T15:43:35;71.00;;;38.73;;
19733;SDS011;10018;51.230;7.860;2022-11-20T15:48:41;54.25;;;30.60;;
19733;SDS011;10018;51.230;7.860;2022-11-20T15:53:34;75.13;;;40.07;;
19733;SDS011;10018;51.230;7.860;2022-11-20T15:56:00;127.10;;;68.23;;
19733;SDS011;10018;51.230;7.860;2022-11-20T15:58:26;109.40;;;57.67;;
19733;SDS011;10018;51.230;7.860;2022-11-20T16:00:51;64.43;;;33.73;;
19733;SDS011;10018;51.230;7.860;2022-11-20T16:03:18;68.23;;;37.10;;
19733;SDS011;10018;51.230;7.860;2022-11-20T16:05:43;53.23;;;31.07;;
19733;SDS011;10018;51.230;7.860;2022-11-20T16:08:09;79.87;;;39.40;;
19733;SDS011;10018;51.230;7.860;2022-11-20T16:10:35;50.57;;;29.70;;